Time;durP1;ratioP1;P1;durP2;ratioP2;P2;SDS_P1;SDS_P2;PMS_P1;PMS_P2;Temp;Humidity;BMP_temperature;BMP_pressure;BME280_temperature;BME280_humidity;BME280_pressure;Samples;Min_cycle;Max_cycle;Signal;HPM_P1;HPM_P2
2022/10/01 00:01:51;;;;;;;10.40;9.27;;;11.80;99.90;;;;;;5058251;28;20039;-27
2022/10/01 00:04:17;;;;;;;9.57;8.63;;;11.80;99.90;;;;;;5058461;28;20037;-27
2022/10/01 00:06:43;;;;;;;10.10;9.10;;;11.70;99.90;;;;;;5059822;28;20078;-27
2022/10/01 00:09:08;;;;;;;10.77;9.70;;;11.70;99.90;;;;;;5073761;28;20044;-27
2022/10/01 00:11:34;;;;;;;10.13;9.23;;;11.70;99.90;;;;;;5072746;28;20053;-27
2022/10/01 00:14:00;;;;;;;10.50;9.50;;;11.60;99.90;;;;;;5061922;28;20490;-27
2022/10/01 00:16:28;;;;;;;10.05;9.15;;;11.60;99.90;;;;;;5055206;28;20490;-27
2022/10/01 00:18:55;;;;;;;11.23;10.20;;;11.60;99.90;;;;;;5066699;28;20433;-27
2022/10/01 00:21:26;;;;;;;11.25;10.15;;;11.60;99.90;;;;;;5071727;28;20039;-27
2022/10/01 00:24:11;;;;;;;11.27;10.18;;;11.60;99.90;;;;;;5061821;28;20123;-27
2022/10/01 00:26:38;;;;;;;11.60;10.50;;;11.50;99.90;;;;;;5067287;28;20059;-27
2022/10/01 00:29:09;;;;;;;11.73;10.63;;;11.50;99.90;;;;;;5072547;28;20032;-27
2022/10/01 00:31:35;;;;;;;11.30;10.20;;;11.50;99.90;;;;;;5072687;28;20442;-27
2022/10/01 00:34:02;;;;;;;13.05;10.98;;;11.40;99.90;;;;;;5068000;28;20042;-26
2022/10/01 00:36:28;;;;;;;11.63;10.38;;;11.40;99.90;;;;;;5062501;28;20041;-26
2022/10/01 00:38:59;;;;;;;11.25;10.15;;;11.40;99.90;;;;;;5061389;28;20522;-26
2022/10/01 00:41:26;;;;;;;12.68;10.77;;;11.30;99.90;;;;;;5061290;28;20032;-27
2022/10/01 00:43:56;;;;;;;11.48;10.35;;;11.40;99.90;;;;;;5044075;28;20041;-26
2022/10/01 00:46:40;;;;;;;11.55;10.52;;;11.30;99.90;;;;;;5059399;28;20039;-27
2022/10/01 00:49:27;;;;;;;10.82;9.70;;;11.30;99.90;;;;;;5073039;28;20045;-26
2022/10/01 00:52:01;;;;;;;11.60;10.50;;;11.30;99.90;;;;;;5088743;28;20531;-26
2022/10/01 00:54:37;;;;;;;12.88;11.15;;;11.30;99.90;;;;;;5071016;28;20040;-26
2022/10/01 00:57:05;;;;;;;11.63;10.57;;;11.20;99.90;;;;;;5066670;28;20090;-26
2022/10/01 00:59:32;;;;;;;11.40;10.40;;;11.30;99.90;;;;;;5074954;28;20044;-26
2022/10/01 01:01:58;;;;;;;11.68;10.68;;;11.20;99.90;;;;;;5059345;28;20454;-26
2022/10/01 01:04:24;;;;;;;13.27;11.90;;;11.20;99.90;;;;;;5093998;28;20032;-27
2022/10/01 01:06:56;;;;;;;11.85;10.63;;;11.20;99.90;;;;;;5076776;28;20119;-27
2022/10/01 01:09:29;;;;;;;14.35;11.48;;;11.20;99.90;;;;;;5076013;28;20071;-26
2022/10/01 01:12:18;;;;;;;13.83;11.53;;;11.20;99.90;;;;;;5069815;28;20090;-26
2022/10/01 01:15:06;;;;;;;13.13;11.93;;;11.20;99.90;;;;;;5069715;28;20040;-26
2022/10/01 01:17:43;;;;;;;13.70;12.30;;;11.10;99.90;;;;;;5064443;28;20047;-26
2022/10/01 01:20:44;;;;;;;13.32;11.75;;;11.10;99.90;;;;;;5093600;28;20397;-26
2022/10/01 01:23:13;;;;;;;14.00;12.68;;;11.10;99.90;;;;;;5063742;28;20043;-26
2022/10/01 01:25:58;;;;;;;13.90;12.30;;;11.10;99.90;;;;;;5068377;28;20478;-26
2022/10/01 01:28:39;;;;;;;14.45;13.07;;;11.10;99.90;;;;;;5060814;28;20032;-26
2022/10/01 01:31:11;;;;;;;14.20;12.75;;;11.10;99.90;;;;;;5068836;28;20048;-26
2022/10/01 01:33:39;;;;;;;14.02;12.60;;;11.10;99.90;;;;;;5072821;28;20058;-26
2022/10/01 01:36:19;;;;;;;14.73;13.23;;;11.10;99.90;;;;;;5069540;28;20115;-25
2022/10/01 01:38:53;;;;;;;15.25;13.38;;;11.10;99.90;;;;;;5073794;28;20032;-25
2022/10/01 01:41:34;;;;;;;13.75;12.35;;;11.10;99.90;;;;;;5056952;28;20431;-25
2022/10/01 01:44:02;;;;;;;15.70;14.10;;;11.10;99.90;;;;;;5062533;28;20040;-25
2022/10/01 01:46:35;;;;;;;14.82;13.35;;;11.00;99.90;;;;;;5067175;28;20040;-25
2022/10/01 01:49:03;;;;;;;14.98;13.32;;;11.00;99.90;;;;;;5075367;28;20055;-25
2022/10/01 01:51:44;;;;;;;14.35;12.93;;;11.00;99.90;;;;;;5072202;28;20477;-25
2022/10/01 01:54:10;;;;;;;14.93;13.35;;;11.00;99.90;;;;;;5073037;28;20035;-25
2022/10/01 01:56:36;;;;;;;13.07;11.75;;;11.00;99.90;;;;;;5068963;28;20513;-25
2022/10/01 01:59:02;;;;;;;15.18;13.70;;;11.00;99.90;;;;;;5058047;28;20070;-25
2022/10/01 02:01:41;;;;;;;15.32;13.70;;;11.00;99.90;;;;;;5059802;28;20086;-26
2022/10/01 02:04:19;;;;;;;14.95;13.52;;;11.00;99.90;;;;;;5081537;28;20083;-26
2022/10/01 02:07:14;;;;;;;15.60;13.98;;;11.00;99.90;;;;;;5066448;28;20440;-26
2022/10/01 02:09:46;;;;;;;15.98;14.27;;;10.90;99.90;;;;;;5059350;28;20512;-26
2022/10/01 02:12:18;;;;;;;16.42;13.50;;;11.00;99.90;;;;;;5043983;28;20100;-26
2022/10/01 02:14:55;;;;;;;15.68;13.23;;;11.00;99.90;;;;;;5073636;28;20036;-25
2022/10/01 02:17:52;;;;;;;14.45;12.85;;;11.00;99.90;;;;;;5066601;28;20037;-26
2022/10/01 02:20:29;;;;;;;14.57;13.07;;;11.00;99.90;;;;;;5074443;28;20040;-26
2022/10/01 02:23:05;;;;;;;14.82;13.27;;;11.00;99.90;;;;;;5067595;28;20029;-26
2022/10/01 02:25:42;;;;;;;15.32;13.93;;;11.00;99.90;;;;;;5074323;28;20363;-26
2022/10/01 02:28:15;;;;;;;14.38;12.88;;;11.00;99.90;;;;;;5060602;28;20037;-26
2022/10/01 02:30:43;;;;;;;15.98;14.27;;;10.90;99.90;;;;;;5091238;28;20032;-26
2022/10/01 02:33:14;;;;;;;14.45;13.02;;;11.00;99.90;;;;;;5062452;28;20046;-26
2022/10/01 02:35:42;;;;;;;14.27;12.88;;;11.00;99.90;;;;;;5062482;28;20040;-25
2022/10/01 02:38:10;;;;;;;13.75;11.93;;;11.00;99.90;;;;;;5061400;28;20044;-26
2022/10/01 02:40:40;;;;;;;13.10;11.73;;;10.90;99.90;;;;;;5068017;28;20040;-26
2022/10/01 02:43:15;;;;;;;13.18;11.95;;;10.90;99.90;;;;;;5073637;28;20040;-26
2022/10/01 02:45:45;;;;;;;12.65;11.40;;;11.00;99.90;;;;;;5058899;28;20028;-25
2022/10/01 02:48:16;;;;;;;14.00;11.70;;;11.00;99.90;;;;;;5069073;28;20040;-26
2022/10/01 02:50:56;;;;;;;14.20;12.18;;;11.00;99.90;;;;;;5061482;28;20093;-26
2022/10/01 02:53:34;;;;;;;13.27;12.00;;;11.00;99.90;;;;;;5068021;28;20448;-26
2022/10/01 02:56:03;;;;;;;12.00;10.88;;;11.00;99.90;;;;;;5065947;28;20048;-26
2022/10/01 02:58:29;;;;;;;11.73;10.63;;;11.00;99.90;;;;;;5068383;28;20036;-26
2022/10/01 03:00:55;;;;;;;12.35;10.85;;;11.10;99.90;;;;;;5066243;28;20477;-26
2022/10/01 03:03:21;;;;;;;10.90;9.80;;;11.00;99.90;;;;;;5066167;28;20039;-26
2022/10/01 03:05:46;;;;;;;11.60;10.50;;;11.00;99.90;;;;;;5067179;28;20040;-26
2022/10/01 03:08:12;;;;;;;11.55;10.45;;;11.10;99.90;;;;;;5072968;28;20036;-26
2022/10/01 03:10:38;;;;;;;10.75;9.75;;;11.00;99.90;;;;;;5054007;28;20381;-26
2022/10/01 03:13:05;;;;;;;11.38;10.27;;;11.10;99.90;;;;;;5061552;28;20382;-26
2022/10/01 03:15:31;;;;;;;11.23;10.13;;;11.10;99.90;;;;;;5065178;28;20146;-26
2022/10/01 03:17:57;;;;;;;9.65;8.75;;;11.10;99.90;;;;;;5059721;28;20080;-26
2022/10/01 03:20:23;;;;;;;10.23;9.23;;;11.10;99.90;;;;;;5062686;28;20048;-26
2022/10/01 03:22:49;;;;;;;9.38;8.48;;;11.10;99.90;;;;;;5064730;28;20031;-26
2022/10/01 03:25:16;;;;;;;9.70;8.77;;;11.10;99.90;;;;;;5066621;28;20396;-26
2022/10/01 03:27:42;;;;;;;8.38;7.57;;;11.10;99.90;;;;;;5054359;28;20040;-26
2022/10/01 03:30:08;;;;;;;8.23;7.43;;;11.20;99.90;;;;;;5067870;28;20043;-26
2022/10/01 03:32:34;;;;;;;9.55;8.65;;;11.20;99.90;;;;;;5064634;28;20485;-26
2022/10/01 03:35:00;;;;;;;9.35;8.55;;;11.20;99.90;;;;;;5056959;28;20046;-26
2022/10/01 03:37:26;;;;;;;8.05;7.30;;;11.20;99.90;;;;;;5066611;28;20059;-26
2022/10/01 03:39:52;;;;;;;8.65;7.85;;;11.20;99.90;;;;;;5073677;28;20504;-26
2022/10/01 03:42:17;;;;;;;8.43;7.72;;;11.20;99.90;;;;;;5063878;28;20393;-26
2022/10/01 03:44:43;;;;;;;8.07;7.38;;;11.10;99.90;;;;;;5055443;28;20037;-26
2022/10/01 03:47:10;;;;;;;8.45;7.68;;;11.10;99.90;;;;;;5069840;28;20124;-26
2022/10/01 03:49:36;;;;;;;10.30;7.38;;;11.10;99.90;;;;;;5065238;28;20083;-26
2022/10/01 03:52:03;;;;;;;7.82;7.03;;;11.10;99.90;;;;;;5067033;28;20047;-26
2022/10/01 03:54:30;;;;;;;8.20;7.40;;;11.10;99.90;;;;;;5071599;28;20036;-26
2022/10/01 03:56:56;;;;;;;7.95;7.18;;;11.10;99.90;;;;;;5066634;28;20554;-26
2022/10/01 03:59:22;;;;;;;8.68;7.97;;;11.10;99.90;;;;;;5062591;28;20047;-26
2022/10/01 04:01:48;;;;;;;8.40;7.72;;;11.10;99.90;;;;;;5061445;28;20439;-26
2022/10/01 04:04:14;;;;;;;8.15;7.35;;;11.10;99.90;;;;;;5052847;28;20037;-26
2022/10/01 04:06:40;;;;;;;7.88;7.18;;;11.10;99.90;;;;;;5057020;28;20035;-26
2022/10/01 04:09:08;;;;;;;8.75;7.95;;;11.10;99.90;;;;;;5067253;28;20044;-26
2022/10/01 04:11:34;;;;;;;8.32;7.55;;;11.10;99.90;;;;;;5066192;28;20028;-26
2022/10/01 04:14:00;;;;;;;7.88;7.18;;;11.10;99.90;;;;;;5053015;28;20119;-26
2022/10/01 04:16:26;;;;;;;7.95;7.25;;;11.10;99.90;;;;;;5066912;28;20112;-26
2022/10/01 04:18:52;;;;;;;7.68;6.80;;;11.20;99.90;;;;;;5060816;28;20040;-26
2022/10/01 04:21:18;;;;;;;7.60;6.90;;;11.20;99.90;;;;;;5070940;28;20485;-26
2022/10/01 04:23:44;;;;;;;7.50;6.85;;;11.10;99.90;;;;;;5068135;28;20064;-26
2022/10/01 04:26:10;;;;;;;7.57;6.82;;;11.20;99.90;;;;;;5064548;28;20044;-26
2022/10/01 04:28:35;;;;;;;8.50;7.10;;;11.20;99.90;;;;;;5072434;28;20520;-26
2022/10/01 04:33:46;;;;;;;6.97;6.38;;;11.20;99.90;;;;;;5088734;28;20505;-26
2022/10/01 04:36:11;;;;;;;6.55;5.88;;;11.20;99.90;;;;;;5068456;28;20070;-26
2022/10/01 04:38:37;;;;;;;6.53;5.90;;;11.20;99.90;;;;;;5060979;28;20042;-26
2022/10/01 04:41:03;;;;;;;5.65;5.15;;;11.20;99.90;;;;;;5079730;28;20089;-26
2022/10/01 04:43:29;;;;;;;6.20;5.60;;;11.20;99.90;;;;;;5074821;28;20034;-26
2022/10/01 04:45:55;;;;;;;5.75;5.30;;;11.30;99.90;;;;;;5073422;28;20083;-26
2022/10/01 04:48:22;;;;;;;6.07;5.57;;;11.30;99.90;;;;;;5074097;28;20032;-26
2022/10/01 04:50:48;;;;;;;5.82;5.30;;;11.30;99.90;;;;;;5065330;28;20040;-26
2022/10/01 04:53:14;;;;;;;5.63;5.22;;;11.30;99.90;;;;;;5072659;28;20497;-26
2022/10/01 04:55:41;;;;;;;4.95;4.53;;;11.30;99.90;;;;;;5058821;28;20047;-26
2022/10/01 04:58:07;;;;;;;5.40;5.00;;;11.30;99.90;;;;;;5070702;28;20032;-26
2022/10/01 05:00:35;;;;;;;5.25;4.82;;;11.30;99.90;;;;;;5073580;28;20501;-26
2022/10/01 05:03:01;;;;;;;5.68;5.15;;;11.30;99.90;;;;;;5076560;28;20123;-26
2022/10/01 05:05:28;;;;;;;5.57;5.03;;;11.30;99.90;;;;;;5056083;28;20122;-26
2022/10/01 05:07:54;;;;;;;5.07;4.68;;;11.40;99.90;;;;;;5076740;28;20089;-26
2022/10/01 05:10:21;;;;;;;4.80;4.40;;;11.40;99.90;;;;;;5070980;28;20066;-26
2022/10/01 05:12:48;;;;;;;5.25;4.75;;;11.40;99.90;;;;;;5093881;28;20127;-26
2022/10/01 05:15:15;;;;;;;4.30;4.00;;;11.40;99.90;;;;;;5070074;28;20048;-26
2022/10/01 05:17:41;;;;;;;4.35;3.90;;;11.40;99.90;;;;;;5091681;28;20036;-26
2022/10/01 05:20:14;;;;;;;4.45;4.10;;;11.40;99.90;;;;;;5073387;28;20058;-26
2022/10/01 05:22:40;;;;;;;5.93;4.40;;;11.50;99.90;;;;;;5075879;28;20071;-26
2022/10/01 05:25:06;;;;;;;4.70;4.20;;;11.50;99.90;;;;;;5072039;28;20059;-26
2022/10/01 05:27:35;;;;;;;4.78;4.38;;;11.50;99.90;;;;;;5078218;28;20513;-26
2022/10/01 05:30:01;;;;;;;4.65;4.35;;;11.50;99.90;;;;;;5055777;28;20047;-26
2022/10/01 05:32:27;;;;;;;5.32;4.20;;;11.50;99.90;;;;;;5085751;28;20040;-26
2022/10/01 05:34:53;;;;;;;4.82;4.32;;;11.50;99.90;;;;;;5072251;28;20039;-27
2022/10/01 05:37:20;;;;;;;4.70;4.30;;;11.60;99.90;;;;;;5070524;28;20043;-27
2022/10/01 05:39:46;;;;;;;4.80;4.40;;;11.60;99.90;;;;;;5072453;28;20124;-27
2022/10/01 05:42:12;;;;;;;4.90;4.50;;;11.60;99.90;;;;;;5075747;28;20118;-27
2022/10/01 05:44:39;;;;;;;5.50;5.10;;;11.60;99.90;;;;;;5069641;28;20029;-27
2022/10/01 05:47:05;;;;;;;5.93;5.38;;;11.60;99.90;;;;;;5066409;28;20041;-27
2022/10/01 05:49:33;;;;;;;6.15;5.65;;;11.70;99.90;;;;;;5068517;28;20066;-27
2022/10/01 05:51:59;;;;;;;5.47;4.97;;;11.70;99.90;;;;;;5063231;28;20118;-27
2022/10/01 05:54:28;;;;;;;6.18;5.57;;;11.70;99.90;;;;;;5059006;28;20484;-27
2022/10/01 05:56:54;;;;;;;6.20;5.70;;;11.70;99.90;;;;;;5058024;28;20047;-27
2022/10/01 05:59:20;;;;;;;5.95;5.55;;;11.80;99.90;;;;;;5060134;28;20047;-27
2022/10/01 06:01:46;;;;;;;6.97;6.28;;;11.80;99.90;;;;;;5052829;28;20036;-27
2022/10/01 06:04:12;;;;;;;6.45;5.95;;;11.80;99.90;;;;;;5066185;28;20040;-27
2022/10/01 06:06:38;;;;;;;6.75;6.15;;;11.80;99.90;;;;;;5065846;28;20024;-27
2022/10/01 06:09:04;;;;;;;7.03;6.32;;;11.80;99.90;;;;;;5064746;28;20036;-27
2022/10/01 06:11:29;;;;;;;7.35;6.75;;;11.80;99.90;;;;;;5067297;28;20057;-27
2022/10/01 06:13:55;;;;;;;8.55;7.75;;;11.80;99.90;;;;;;5060493;28;20134;-27
2022/10/01 06:16:21;;;;;;;6.95;6.38;;;11.90;99.90;;;;;;5063510;28;20043;-27
2022/10/01 06:18:48;;;;;;;8.02;7.30;;;11.90;99.90;;;;;;5068017;28;20048;-27
2022/10/01 06:21:14;;;;;;;8.32;7.63;;;11.90;99.90;;;;;;5046087;28;20131;-27
2022/10/01 06:23:40;;;;;;;9.40;8.50;;;12.00;99.90;;;;;;5064677;28;20032;-27
2022/10/01 06:26:05;;;;;;;8.48;7.68;;;12.00;99.90;;;;;;5066676;28;20044;-27
2022/10/01 06:28:32;;;;;;;8.70;7.82;;;12.00;99.90;;;;;;5064086;28;20115;-27
2022/10/01 06:31:02;;;;;;;10.82;8.98;;;12.10;99.90;;;;;;5056790;28;20116;-28
2022/10/01 06:33:28;;;;;;;9.30;8.50;;;12.10;99.90;;;;;;5067093;28;20032;-25
2022/10/01 06:35:54;;;;;;;10.68;9.25;;;12.10;99.90;;;;;;5050644;28;20044;-26
2022/10/01 06:38:22;;;;;;;10.13;9.18;;;12.20;99.90;;;;;;5066936;28;20050;-26
2022/10/01 06:40:57;;;;;;;10.73;9.82;;;12.20;99.90;;;;;;5062015;28;20040;-26
2022/10/01 06:43:25;;;;;;;11.15;10.15;;;12.30;99.90;;;;;;5072362;28;20041;-26
2022/10/01 06:45:52;;;;;;;9.98;9.07;;;12.30;99.90;;;;;;5067300;28;20050;-26
2022/10/01 06:48:19;;;;;;;10.82;9.88;;;12.40;99.90;;;;;;5069355;28;20040;-26
2022/10/01 06:50:46;;;;;;;10.30;9.30;;;12.40;99.90;;;;;;5056112;28;20115;-27
2022/10/01 06:53:14;;;;;;;10.40;9.50;;;12.50;99.90;;;;;;5054281;28;20131;-26
2022/10/01 06:55:40;;;;;;;11.25;10.13;;;12.50;99.90;;;;;;5065776;28;20382;-26
2022/10/01 06:58:13;;;;;;;11.20;10.18;;;12.60;99.90;;;;;;5044726;28;20491;-33
2022/10/01 07:00:40;;;;;;;11.30;10.20;;;12.60;99.90;;;;;;5063601;28;20112;-27
2022/10/01 07:03:10;;;;;;;11.63;10.63;;;12.60;99.90;;;;;;5057402;28;20051;-27
2022/10/01 07:05:37;;;;;;;12.38;11.27;;;12.60;99.90;;;;;;5057263;28;20485;-27
2022/10/01 07:08:05;;;;;;;13.82;12.55;;;12.70;99.90;;;;;;5064285;28;20032;-27
2022/10/01 07:10:33;;;;;;;13.10;11.73;;;12.70;99.90;;;;;;5064918;28;20039;-27
2022/10/01 07:13:16;;;;;;;12.35;11.18;;;12.70;99.90;;;;;;5062463;28;20039;-27
2022/10/01 07:15:43;;;;;;;11.98;10.85;;;12.70;99.90;;;;;;5058990;28;20119;-27
2022/10/01 07:18:09;;;;;;;12.20;10.70;;;12.80;99.90;;;;;;5084315;28;20608;-26
2022/10/01 07:20:38;;;;;;;12.90;11.70;;;12.80;99.90;;;;;;5070550;28;20028;-27
2022/10/01 07:23:05;;;;;;;13.13;11.80;;;12.90;99.90;;;;;;5064716;28;20493;-27
2022/10/01 07:25:32;;;;;;;13.07;10.80;;;13.00;99.90;;;;;;5061426;28;20036;-26
2022/10/01 07:28:00;;;;;;;11.90;10.75;;;13.00;99.90;;;;;;5084893;28;20036;-26
2022/10/01 07:30:27;;;;;;;12.05;10.95;;;13.10;99.90;;;;;;5068369;28;20501;-26
2022/10/01 07:32:56;;;;;;;12.02;10.55;;;13.20;99.90;;;;;;5066557;28;20123;-26
2022/10/01 07:35:21;;;;;;;10.82;9.82;;;13.40;99.90;;;;;;5074533;28;20044;-27
2022/10/01 07:37:48;;;;;;;11.30;10.13;;;13.50;99.90;;;;;;5053819;28;20089;-27
2022/10/01 07:40:15;;;;;;;10.73;9.63;;;13.60;99.90;;;;;;5042267;28;20401;-28
2022/10/01 07:42:42;;;;;;;10.13;9.20;;;13.80;99.90;;;;;;5056334;28;20115;-28
2022/10/01 07:45:09;;;;;;;10.98;9.85;;;13.90;99.90;;;;;;5047471;28;20044;-27
2022/10/01 07:47:35;;;;;;;10.60;9.30;;;13.90;99.90;;;;;;5067488;28;20065;-26
2022/10/01 07:50:01;;;;;;;11.00;9.95;;;14.00;99.90;;;;;;5065698;28;20478;-25
2022/10/01 07:52:27;;;;;;;9.60;8.65;;;14.10;99.90;;;;;;5073198;28;20042;-25
2022/10/01 07:54:52;;;;;;;9.25;8.27;;;14.20;99.90;;;;;;5061601;28;20123;-25
2022/10/01 07:57:18;;;;;;;10.68;8.25;;;14.20;99.90;;;;;;5062590;28;20093;-26
2022/10/01 07:59:44;;;;;;;8.55;7.50;;;14.20;99.90;;;;;;5073877;28;20205;-27
2022/10/01 08:02:14;;;;;;;12.55;8.32;;;14.10;99.90;;;;;;5065038;28;20052;-26
2022/10/01 08:07:25;;;;;;;10.32;8.65;;;14.10;99.90;;;;;;5079374;28;20138;-25
2022/10/01 08:09:50;;;;;;;8.45;7.68;;;14.10;99.90;;;;;;5074042;28;20044;-26
2022/10/01 08:12:18;;;;;;;13.43;7.25;;;14.30;99.90;;;;;;5073497;28;20097;-27
2022/10/01 08:14:46;;;;;;;10.07;6.75;;;14.50;99.90;;;;;;5068551;28;20036;-26
2022/10/01 08:17:12;;;;;;;9.20;7.43;;;14.70;99.90;;;;;;5074037;28;20047;-26
2022/10/01 08:19:39;;;;;;;7.72;6.05;;;15.00;99.90;;;;;;5077697;28;20469;-26
2022/10/01 08:22:06;;;;;;;7.35;5.32;;;15.50;99.90;;;;;;5074001;28;20068;-26
2022/10/01 08:24:33;;;;;;;8.45;5.80;;;15.70;99.90;;;;;;5073597;28;20035;-26
2022/10/01 08:26:59;;;;;;;8.45;5.32;;;16.10;99.90;;;;;;5078803;28;20062;-26
2022/10/01 08:29:25;;;;;;;8.57;5.78;;;16.40;99.90;;;;;;5056325;28;20444;-26
2022/10/01 08:31:51;;;;;;;7.95;4.85;;;16.50;99.90;;;;;;5062986;28;20118;-26
2022/10/01 08:34:17;;;;;;;6.55;3.92;;;16.70;99.90;;;;;;5077230;28;20470;-26
2022/10/01 08:36:43;;;;;;;6.03;3.95;;;16.80;99.90;;;;;;5080230;28;20053;-28
2022/10/01 08:39:11;;;;;;;8.70;3.70;;;17.00;99.90;;;;;;5048382;28;20393;-26
2022/10/01 08:41:59;;;;;;;9.43;3.95;;;17.30;99.90;;;;;;5066716;28;20036;-27
2022/10/01 08:44:41;;;;;;;7.32;4.13;;;17.10;99.90;;;;;;5060552;28;20040;-27
2022/10/01 08:47:32;;;;;;;8.95;3.25;;;17.30;99.90;;;;;;5075859;28;20036;-27
2022/10/01 08:50:07;;;;;;;4.75;2.80;;;17.60;99.90;;;;;;5029909;28;20047;-26
2022/10/01 08:52:38;;;;;;;6.78;2.92;;;17.80;99.90;;;;;;5069322;28;20471;-27
2022/10/01 08:55:18;;;;;;;7.10;2.65;;;17.90;99.90;;;;;;5076992;28;20108;-26
2022/10/01 08:57:50;;;;;;;4.68;2.75;;;18.00;99.90;;;;;;5044655;28;20047;-26
2022/10/01 09:00:18;;;;;;;4.47;2.25;;;17.90;99.90;;;;;;5070245;28;20047;-26
2022/10/01 09:02:45;;;;;;;7.25;2.55;;;17.60;99.90;;;;;;5069002;28;20036;-26
2022/10/01 09:05:42;;;;;;;8.80;3.08;;;17.30;99.90;;;;;;5070331;28;20028;-26
2022/10/01 09:08:14;;;;;;;6.30;2.75;;;17.10;99.90;;;;;;5063323;28;20085;-26
2022/10/01 09:11:05;;;;;;;6.93;2.25;;;17.50;99.90;;;;;;5063940;28;20068;-27
2022/10/01 09:14:02;;;;;;;6.88;2.10;;;18.10;99.90;;;;;;5060745;28;20036;-26
2022/10/01 09:16:39;;;;;;;6.05;2.40;;;18.10;99.90;;;;;;5069738;28;20047;-27
2022/10/01 09:19:20;;;;;;;7.07;2.33;;;17.90;99.90;;;;;;5065788;28;20506;-26
2022/10/01 09:21:56;;;;;;;6.22;2.30;;;17.50;99.90;;;;;;5068285;28;20036;-26
2022/10/01 09:24:39;;;;;;;8.88;2.33;;;17.30;99.90;;;;;;5072958;28;20517;-26
2022/10/01 09:27:14;;;;;;;7.15;1.77;;;17.20;99.90;;;;;;5070520;28;20405;-26
2022/10/01 09:29:55;;;;;;;5.38;1.85;;;17.30;99.90;;;;;;5060883;28;20253;-26
2022/10/01 09:32:26;;;;;;;6.30;1.40;;;17.10;99.90;;;;;;5067348;28;20117;-26
2022/10/01 09:34:53;;;;;;;5.25;1.90;;;17.00;99.90;;;;;;5065499;28;20509;-26
2022/10/01 09:37:42;;;;;;;5.57;1.80;;;17.30;99.90;;;;;;5069284;28;20032;-25
2022/10/01 09:40:22;;;;;;;4.47;1.60;;;17.40;99.90;;;;;;5063577;28;20048;-28
2022/10/01 09:42:49;;;;;;;5.28;1.58;;;17.20;99.90;;;;;;5066821;28;20371;-26
2022/10/01 09:45:17;;;;;;;4.32;1.85;;;17.00;99.90;;;;;;5069817;28;20462;-25
2022/10/01 09:47:49;;;;;;;5.65;1.63;;;16.70;99.90;;;;;;5060117;28;20039;-28
2022/10/01 09:50:27;;;;;;;4.82;1.70;;;16.80;99.90;;;;;;5071239;28;20040;-25
2022/10/01 09:52:55;;;;;;;3.25;1.40;;;17.30;99.90;;;;;;5054230;28;20179;-26
2022/10/01 09:55:39;;;;;;;6.60;1.33;;;17.90;99.90;;;;;;5065935;28;20046;-26
2022/10/01 09:58:19;;;;;;;6.63;1.60;;;18.80;99.90;;;;;;5066210;28;20409;-26
2022/10/01 10:00:47;;;;;;;1.95;1.13;;;19.40;99.90;;;;;;5057486;28;20036;-26
2022/10/01 10:03:24;;;;;;;4.60;1.55;;;19.40;99.90;;;;;;5073840;28;20064;-26
2022/10/01 10:05:51;;;;;;;4.07;1.35;;;19.00;99.90;;;;;;5066218;28;20110;-26
2022/10/01 10:08:28;;;;;;;4.07;1.25;;;19.00;99.90;;;;;;5063852;28;20032;-26
2022/10/01 10:11:00;;;;;;;3.45;1.80;;;19.10;99.90;;;;;;5069429;28;20123;-26
2022/10/01 10:13:30;;;;;;;6.57;1.50;;;19.30;99.90;;;;;;5069524;28;20040;-26
2022/10/01 10:15:57;;;;;;;5.70;1.48;;;19.10;99.90;;;;;;5064648;28;20044;-26
2022/10/01 10:18:33;;;;;;;3.85;1.45;;;19.50;99.90;;;;;;5061832;28;20032;-26
2022/10/01 10:21:06;;;;;;;3.28;1.27;;;20.10;99.90;;;;;;5082739;28;20637;-26
2022/10/01 10:23:33;;;;;;;5.65;1.77;;;20.50;99.90;;;;;;5069509;28;20473;-26
2022/10/01 10:26:06;;;;;;;4.15;1.23;;;20.80;99.90;;;;;;5064050;28;20520;-26
2022/10/01 10:28:44;;;;;;;4.32;1.50;;;20.90;99.90;;;;;;5073034;28;20032;-26
2022/10/01 10:31:15;;;;;;;3.92;1.48;;;21.00;99.90;;;;;;5067095;28;20036;-26
2022/10/01 10:34:12;;;;;;;5.43;1.48;;;20.70;99.90;;;;;;5068616;28;20036;-27
2022/10/01 10:36:40;;;;;;;5.65;1.67;;;20.80;99.90;;;;;;5040126;28;20043;-26
2022/10/01 10:39:17;;;;;;;5.43;1.98;;;20.30;99.90;;;;;;5065438;28;20055;-27
2022/10/01 10:41:46;;;;;;;8.38;2.25;;;19.70;99.90;;;;;;5058504;28;20037;-27
2022/10/01 10:44:15;;;;;;;7.38;2.58;;;19.00;99.90;;;;;;5074512;28;20602;-27
2022/10/01 10:46:43;;;;;;;9.05;2.28;;;18.50;99.90;;;;;;5065597;28;20036;-27
2022/10/01 10:49:20;;;;;;;5.72;2.13;;;17.90;99.90;;;;;;5058626;28;20032;-27
2022/10/01 10:51:52;;;;;;;4.75;1.70;;;17.40;99.90;;;;;;5063440;28;20044;-27
2022/10/01 10:54:36;;;;;;;3.63;1.75;;;16.90;99.90;;;;;;5065965;28;20443;-27
2022/10/01 10:57:26;;;;;;;5.45;1.75;;;16.60;99.90;;;;;;5069243;28;20600;-26
2022/10/01 10:59:55;;;;;;;3.40;1.27;;;16.30;99.90;;;;;;5066256;28;20451;-27
2022/10/01 11:02:24;;;;;;;3.17;1.40;;;15.90;99.90;;;;;;5071481;28;20039;-26
2022/10/01 11:04:51;;;;;;;3.70;1.23;;;15.80;99.90;;;;;;5068928;28;20036;-26
2022/10/01 11:07:22;;;;;;;4.57;1.58;;;15.60;99.90;;;;;;5066723;28;20028;-26
2022/10/01 11:10:16;;;;;;;4.80;1.60;;;15.50;99.90;;;;;;5066753;28;20498;-26
2022/10/01 11:13:05;;;;;;;5.35;2.00;;;15.30;99.90;;;;;;5059930;28;20047;-26
2022/10/01 11:16:01;;;;;;;8.98;2.17;;;15.00;99.90;;;;;;5064264;28;20482;-26
2022/10/01 11:18:54;;;;;;;6.05;1.65;;;14.80;99.90;;;;;;5065043;28;20432;-26
2022/10/01 11:21:40;;;;;;;8.18;1.73;;;14.60;99.90;;;;;;5065150;28;20040;-26
2022/10/01 11:24:09;;;;;;;5.15;1.38;;;14.50;99.90;;;;;;5062644;28;20040;-27
2022/10/01 11:26:43;;;;;;;3.58;1.27;;;14.50;99.90;;;;;;5065483;28;20034;-27
2022/10/01 11:29:28;;;;;;;6.47;1.50;;;14.60;99.90;;;;;;5068574;28;20392;-27
2022/10/01 11:32:32;;;;;;;4.97;1.52;;;14.80;99.90;;;;;;5071480;28;20044;-26
2022/10/01 11:35:25;;;;;;;;;;;15.10;99.90;;;;;;5056638;28;20075;-27
2022/10/01 11:38:18;;;;;;;7.22;1.70;;;15.10;99.90;;;;;;5065810;28;19923;-26
2022/10/01 11:40:58;;;;;;;3.70;1.40;;;14.90;99.90;;;;;;5067917;28;20120;-26
2022/10/01 11:43:40;;;;;;;3.75;1.45;;;14.70;99.90;;;;;;5072194;28;20076;-26
2022/10/01 11:46:12;;;;;;;4.78;1.00;;;14.70;99.90;;;;;;5071225;28;20181;-27
2022/10/01 11:48:43;;;;;;;5.95;1.55;;;14.60;99.90;;;;;;5063480;28;20036;-26
2022/10/01 11:51:19;;;;;;;5.15;1.25;;;14.60;99.90;;;;;;5073907;28;20067;-27
2022/10/01 11:53:55;;;;;;;3.03;1.10;;;14.60;99.90;;;;;;5057761;28;20036;-27
2022/10/01 11:59:21;;;;;;;4.60;1.60;;;14.70;99.90;;;;;;5092913;28;20118;-27
2022/10/01 12:01:53;;;;;;;6.15;2.45;;;14.70;99.90;;;;;;5080320;28;20032;-27
2022/10/01 12:04:37;;;;;;;6.38;3.42;;;15.00;99.90;;;;;;5085816;28;20519;-29
2022/10/01 12:07:37;;;;;;;5.03;3.83;;;15.90;99.90;;;;;;5069320;28;20078;-29
2022/10/01 12:10:19;;;;;;;6.57;4.32;;;16.70;99.90;;;;;;5074029;28;20091;-28
2022/10/01 12:12:54;;;;;;;7.72;3.72;;;17.20;99.90;;;;;;5073957;28;20075;-28
2022/10/01 12:15:33;;;;;;;5.93;3.03;;;17.60;99.90;;;;;;5057165;28;20044;-28
2022/10/01 12:18:37;;;;;;;7.13;2.50;;;18.30;99.90;;;;;;5056157;28;20044;-28
2022/10/01 12:21:06;;;;;;;;;;;18.90;99.90;;;;;;5034365;28;20067;-28
2022/10/01 12:23:41;;;;;;;6.97;1.85;;;19.90;99.90;;;;;;5072154;28;19923;-28
2022/10/01 12:26:39;;;;;;;6.78;1.63;;;20.90;99.90;;;;;;5072320;28;20043;-28
2022/10/01 12:29:32;;;;;;;6.75;2.05;;;21.80;99.90;;;;;;5037989;28;20059;-28
2022/10/01 12:32:10;;;;;;;4.25;1.70;;;21.60;99.90;;;;;;5070443;28;20097;-28
2022/10/01 12:34:39;;;;;;;6.88;2.65;;;20.30;99.90;;;;;;5072836;28;20052;-28
2022/10/01 12:37:56;;;;;;;12.98;2.28;;;19.40;99.90;;;;;;5055444;28;20040;-28
2022/10/01 12:40:39;;;;;;;7.03;1.80;;;18.70;99.90;;;;;;5030637;28;20089;-28
2022/10/01 12:43:28;;;;;;;8.98;2.60;;;18.00;99.90;;;;;;5073349;28;20047;-28
2022/10/01 12:46:19;;;;;;;6.55;2.05;;;17.50;99.90;;;;;;5075667;28;20075;-28
2022/10/01 12:49:04;;;;;;;7.93;2.10;;;17.10;99.90;;;;;;5032961;28;20109;-28
2022/10/01 12:51:47;;;;;;;6.72;1.45;;;17.10;99.90;;;;;;5076975;28;20044;-28
2022/10/01 12:54:32;;;;;;;;;;;17.80;99.90;;;;;;5077886;28;20479;-28
2022/10/01 12:56:57;;;;;;;4.68;1.60;;;18.70;99.90;;;;;;5077236;28;19958;-28
2022/10/01 12:59:47;;;;;;;4.30;1.55;;;20.00;99.90;;;;;;5076876;28;20071;-28
2022/10/01 13:02:33;;;;;;;3.92;1.60;;;21.10;99.90;;;;;;5077110;28;20489;-28
2022/10/01 13:05:44;;;;;;;4.18;1.55;;;21.80;99.90;;;;;;5076988;28;20123;-28
2022/10/01 13:08:16;;;;;;;6.28;1.50;;;21.40;99.90;;;;;;5035272;28;20449;-28
2022/10/01 13:11:02;;;;;;;6.53;1.98;;;21.30;99.90;;;;;;5075884;28;20524;-28
2022/10/01 13:13:32;;;;;;;8.20;1.88;;;21.60;99.90;;;;;;5076794;28;20075;-28
2022/10/01 13:16:30;;;;;;;4.80;1.80;;;22.40;99.90;;;;;;5076933;28;20040;-28